Madeline — WDE3220 — position and weather

sailwx.info

Track history (hours):
 
Tides and Currents Weather Stations Pressure Air Temp Water Temp Dewpoint Dewpoint Depression Visibility Wind Speed Wind Dir Waves Ship Positions

Madeline

Owner: TUG MADELINE, LLC, NEW CASTLE, DE. More information available from US FCC via Universal Licensing System and Coast Guard Vessel Documentation Center.

Last reported at 2016-Sep-29 23:33 UTC. Time now 2016-Sep-30 01:35 UTC.
Position N 39°53' W 075°11'.

; draft 4.6 m.

Type: Tug. MMSI: 367335830.

Date/timePositionNaut miles runAvg speedWind from/ knotsBaromVisibWave heightAir tempDewpointWater temp
2016-Sep-29 23:33N 39°53' W 075°11'0 0.0
2016-Sep-29 21:33N 39°53' W 075°11'0 0.0
2016-Sep-29 20:33N 39°53' W 075°11'0 0.0
2016-Sep-29 19:33N 39°53' W 075°11'0 0.0
2016-Sep-29 16:33N 39°53' W 075°11'0 0.0
2016-Sep-29 15:33N 39°53' W 075°11'0 0.0
2016-Sep-29 14:33N 39°53' W 075°11'0 0.0
2016-Sep-29 13:33N 39°53' W 075°11'0 0.0
2016-Sep-29 08:33N 39°53' W 075°11'0 0.0
2016-Sep-29 07:33N 39°53' W 075°11'0 0.0
2016-Sep-29 00:33N 39°53' W 075°11'14 4.8
2016-Sep-28 21:33N 40°03' W 074°58'4 0.6
2016-Sep-28 15:23N 40°05' W 074°53'16 5.6
2016-Sep-28 12:33N 39°54' W 075°08'0 0.1
2016-Sep-28 08:33N 39°54' W 075°08'0 0.0
2016-Sep-28 03:33N 39°54' W 075°08'0 0.0
2016-Sep-28 02:33N 39°54' W 075°08'0 0.0
2016-Sep-28 01:33N 39°54' W 075°08'5 2.3
2016-Sep-27 23:33N 39°52' W 075°14'10 2.5
2016-Sep-27 19:34N 39°48' W 075°26'0 0.0
2016-Sep-27 14:32N 39°48' W 075°26'0 0.2
2016-Sep-27 13:32N 39°48' W 075°26'13 1.0
2016-Sep-27 00:34N 39°53' W 075°10'1 0.3
2016-Sep-26 20:33N 39°53' W 075°11'0 0.1
2016-Sep-26 19:33N 39°53' W 075°11'11 2.5
2016-Sep-26 15:25N 39°49' W 075°24'10 5.4
2016-Sep-26 13:29N 39°53' W 075°11'0 0.0
2016-Sep-26 11:34N 39°53' W 075°11'2 0.8
2016-Sep-26 08:33N 39°54' W 075°08'0 0.0
2016-Sep-26 02:34N 39°54' W 075°08'4 3.9
2016-Sep-26 01:29N 39°52' W 075°13'0 0.0
2016-Sep-26 00:33N 39°52' W 075°13'3 1.1
2016-Sep-25 21:33N 39°53' W 075°09'2 0.4
2016-Sep-25 17:33N 39°53' W 075°11'0 0.0
2016-Sep-25 16:33N 39°53' W 075°11'0 0.0
2016-Sep-25 15:33N 39°53' W 075°11'0 0.0
2016-Sep-25 14:33N 39°53' W 075°11'0 0.0
2016-Sep-25 12:33N 39°53' W 075°11'0 0.0
2016-Sep-25 11:33N 39°53' W 075°11'3 2.6
2016-Sep-25 10:33N 39°54' W 075°08'0 0.0
2016-Sep-25 09:34N 39°54' W 075°08'3 1.3
2016-Sep-25 07:33N 39°53' W 075°11'0 0.0
2016-Sep-25 04:33N 39°53' W 075°11'3 0.7
2016-Sep-25 00:33N 39°51' W 075°14'2 0.8
2016-Sep-24 22:33N 39°51' W 075°16'0 0.0
2016-Sep-24 21:33N 39°51' W 075°16'3 1.5
2016-Sep-24 19:33N 39°51' W 075°20'4 4.2
2016-Sep-24 18:33N 39°49' W 075°24'0 0.1
2016-Sep-24 17:33N 39°49' W 075°24'5 4.6
2016-Sep-24 16:33N 39°51' W 075°19'3 1.5
2016-Sep-24 14:33N 39°51' W 075°15'1 0.3
2016-Sep-24 12:33N 39°51' W 075°16'0 0.0
2016-Sep-24 10:33N 39°51' W 075°16'0 0.0
2016-Sep-24 09:33N 39°51' W 075°16'0 0.0
2016-Sep-24 03:33N 39°51' W 075°16'0 0.0
2016-Sep-24 02:33N 39°51' W 075°16'0 0.4
2016-Sep-24 01:33N 39°51' W 075°16'0 0.4
2016-Sep-24 00:33N 39°51' W 075°16'14 2.8
2016-Sep-23 19:33N 39°43' W 075°31'0 0.2
2016-Sep-23 17:34N 39°43' W 075°32'0 0.0
2016-Sep-23 16:33N 39°43' W 075°32'0 0.0
2016-Sep-23 15:33N 39°43' W 075°32'0 0.0
2016-Sep-23 13:22N 39°43' W 075°32'0 0.1
2016-Sep-23 09:33N 39°43' W 075°31'0 0.0
2016-Sep-23 06:33N 39°43' W 075°31'0 0.0
2016-Sep-23 04:33N 39°43' W 075°31'0 0.0
2016-Sep-23 03:33N 39°43' W 075°31'0 0.0
2016-Sep-23 02:33N 39°43' W 075°31'0 0.0
2016-Sep-23 01:33N 39°43' W 075°31'0 0.0
2016-Sep-23 00:33N 39°43' W 075°31'8 8.1
2016-Sep-22 23:33N 39°36' W 075°36'20 6.8
2016-Sep-22 20:33N 39°18' W 075°23'19 2.4
2016-Sep-22 12:33N 39°35' W 075°35'9 1.1
2016-Sep-22 04:26N 39°43' W 075°32'0 0.0
2016-Sep-22 03:29N 39°43' W 075°32'13 4.3
2016-Sep-22 00:31N 39°51' W 075°18'2 1.7
2016-Sep-21 23:33N 39°51' W 075°16'3 3.4
2016-Sep-21 22:33N 39°51' W 075°21'5 1.7
2016-Sep-21 19:33N 39°48' W 075°26'6 2.1
2016-Sep-21 16:34N 39°43' W 075°32'9 1.2
2016-Sep-21 09:33N 39°35' W 075°35'2 2.3
2016-Sep-21 08:33N 39°34' W 075°33'21 6.9
2016-Sep-21 05:33N 39°51' W 075°18'5 2.7
2016-Sep-21 03:34N 39°53' W 075°11'1 0.8
2016-Sep-21 02:34N 39°53' W 075°12'12 1.3
2016-Sep-20 17:34N 39°48' W 075°26'0 0.0
2016-Sep-20 14:34N 39°48' W 075°26'1 1.4
2016-Sep-20 13:34N 39°49' W 075°24'9 3.1
2016-Sep-20 10:33N 39°52' W 075°13'2 1.2
2016-Sep-20 08:33N 39°51' W 075°16'0 0.0
2016-Sep-20 07:33N 39°51' W 075°16'0 0.0
2016-Sep-20 06:33N 39°51' W 075°16'0 0.0
2016-Sep-20 02:33N 39°51' W 075°16'  
Track history (hours):
 
Tides and Currents Weather Stations Pressure Air Temp Water Temp Dewpoint Dewpoint Depression Visibility Wind Speed Wind Dir Waves Ship Positions

Madeline

Owner: TUG MADELINE, LLC, NEW CASTLE, DE. More information available from US FCC via Universal Licensing System and Coast Guard Vessel Documentation Center.

Last reported at 2016-Sep-29 23:33 UTC. Time now 2016-Sep-30 01:35 UTC.
Position N 39°53' W 075°11'.

; draft 4.6 m.

Type: Tug. MMSI: 367335830.

Date/timePositionNaut miles runAvg speedWind from/ knotsBaromVisibWave heightAir tempDewpointWater temp
2016-Sep-29 23:33N 39°53' W 075°11'0 0.0
2016-Sep-29 21:33N 39°53' W 075°11'0 0.0
2016-Sep-29 20:33N 39°53' W 075°11'0 0.0
2016-Sep-29 19:33N 39°53' W 075°11'0 0.0
2016-Sep-29 16:33N 39°53' W 075°11'0 0.0
2016-Sep-29 15:33N 39°53' W 075°11'0 0.0
2016-Sep-29 14:33N 39°53' W 075°11'0 0.0
2016-Sep-29 13:33N 39°53' W 075°11'0 0.0
2016-Sep-29 08:33N 39°53' W 075°11'0 0.0
2016-Sep-29 07:33N 39°53' W 075°11'0 0.0
2016-Sep-29 00:33N 39°53' W 075°11'14 4.8
2016-Sep-28 21:33N 40°03' W 074°58'4 0.6
2016-Sep-28 15:23N 40°05' W 074°53'16 5.6
2016-Sep-28 12:33N 39°54' W 075°08'0 0.1
2016-Sep-28 08:33N 39°54' W 075°08'0 0.0
2016-Sep-28 03:33N 39°54' W 075°08'0 0.0
2016-Sep-28 02:33N 39°54' W 075°08'0 0.0
2016-Sep-28 01:33N 39°54' W 075°08'5 2.3
2016-Sep-27 23:33N 39°52' W 075°14'10 2.5
2016-Sep-27 19:34N 39°48' W 075°26'0 0.0
2016-Sep-27 14:32N 39°48' W 075°26'0 0.2
2016-Sep-27 13:32N 39°48' W 075°26'13 1.0
2016-Sep-27 00:34N 39°53' W 075°10'1 0.3
2016-Sep-26 20:33N 39°53' W 075°11'0 0.1
2016-Sep-26 19:33N 39°53' W 075°11'11 2.5
2016-Sep-26 15:25N 39°49' W 075°24'10 5.4
2016-Sep-26 13:29N 39°53' W 075°11'0 0.0
2016-Sep-26 11:34N 39°53' W 075°11'2 0.8
2016-Sep-26 08:33N 39°54' W 075°08'0 0.0
2016-Sep-26 02:34N 39°54' W 075°08'4 3.9
2016-Sep-26 01:29N 39°52' W 075°13'0 0.0
2016-Sep-26 00:33N 39°52' W 075°13'3 1.1
2016-Sep-25 21:33N 39°53' W 075°09'2 0.4
2016-Sep-25 17:33N 39°53' W 075°11'0 0.0
2016-Sep-25 16:33N 39°53' W 075°11'0 0.0
2016-Sep-25 15:33N 39°53' W 075°11'0 0.0
2016-Sep-25 14:33N 39°53' W 075°11'0 0.0
2016-Sep-25 12:33N 39°53' W 075°11'0 0.0
2016-Sep-25 11:33N 39°53' W 075°11'3 2.6
2016-Sep-25 10:33N 39°54' W 075°08'0 0.0
2016-Sep-25 09:34N 39°54' W 075°08'3 1.3
2016-Sep-25 07:33N 39°53' W 075°11'0 0.0
2016-Sep-25 04:33N 39°53' W 075°11'3 0.7
2016-Sep-25 00:33N 39°51' W 075°14'2 0.8
2016-Sep-24 22:33N 39°51' W 075°16'0 0.0
2016-Sep-24 21:33N 39°51' W 075°16'3 1.5
2016-Sep-24 19:33N 39°51' W 075°20'4 4.2
2016-Sep-24 18:33N 39°49' W 075°24'0 0.1
2016-Sep-24 17:33N 39°49' W 075°24'5 4.6
2016-Sep-24 16:33N 39°51' W 075°19'3 1.5
2016-Sep-24 14:33N 39°51' W 075°15'1 0.3
2016-Sep-24 12:33N 39°51' W 075°16'0 0.0
2016-Sep-24 10:33N 39°51' W 075°16'0 0.0
2016-Sep-24 09:33N 39°51' W 075°16'0 0.0
2016-Sep-24 03:33N 39°51' W 075°16'0 0.0
2016-Sep-24 02:33N 39°51' W 075°16'0 0.4
2016-Sep-24 01:33N 39°51' W 075°16'0 0.4
2016-Sep-24 00:33N 39°51' W 075°16'14 2.8
2016-Sep-23 19:33N 39°43' W 075°31'0 0.2
2016-Sep-23 17:34N 39°43' W 075°32'0 0.0
2016-Sep-23 16:33N 39°43' W 075°32'0 0.0
2016-Sep-23 15:33N 39°43' W 075°32'0 0.0
2016-Sep-23 13:22N 39°43' W 075°32'0 0.1
2016-Sep-23 09:33N 39°43' W 075°31'0 0.0
2016-Sep-23 06:33N 39°43' W 075°31'0 0.0
2016-Sep-23 04:33N 39°43' W 075°31'0 0.0
2016-Sep-23 03:33N 39°43' W 075°31'0 0.0
2016-Sep-23 02:33N 39°43' W 075°31'0 0.0
2016-Sep-23 01:33N 39°43' W 075°31'0 0.0
2016-Sep-23 00:33N 39°43' W 075°31'8 8.1
2016-Sep-22 23:33N 39°36' W 075°36'20 6.8
2016-Sep-22 20:33N 39°18' W 075°23'19 2.4
2016-Sep-22 12:33N 39°35' W 075°35'9 1.1
2016-Sep-22 04:26N 39°43' W 075°32'0 0.0
2016-Sep-22 03:29N 39°43' W 075°32'13 4.3
2016-Sep-22 00:31N 39°51' W 075°18'2 1.7
2016-Sep-21 23:33N 39°51' W 075°16'3 3.4
2016-Sep-21 22:33N 39°51' W 075°21'5 1.7
2016-Sep-21 19:33N 39°48' W 075°26'6 2.1
2016-Sep-21 16:34N 39°43' W 075°32'9 1.2
2016-Sep-21 09:33N 39°35' W 075°35'2 2.3
2016-Sep-21 08:33N 39°34' W 075°33'21 6.9
2016-Sep-21 05:33N 39°51' W 075°18'5 2.7
2016-Sep-21 03:34N 39°53' W 075°11'1 0.8
2016-Sep-21 02:34N 39°53' W 075°12'12 1.3
2016-Sep-20 17:34N 39°48' W 075°26'0 0.0
2016-Sep-20 14:34N 39°48' W 075°26'1 1.4
2016-Sep-20 13:34N 39°49' W 075°24'9 3.1
2016-Sep-20 10:33N 39°52' W 075°13'2 1.2
2016-Sep-20 08:33N 39°51' W 075°16'0 0.0
2016-Sep-20 07:33N 39°51' W 075°16'0 0.0
2016-Sep-20 06:33N 39°51' W 075°16'0 0.0
2016-Sep-20 02:33N 39°51' W 075°16'  

Dump ship's entire track history